createdAt,value
2022-10-10T00:01:45.963Z,24.00
2022-10-10T00:04:14.985Z,23.40
2022-10-10T00:06:43.892Z,28.20
2022-10-10T00:09:12.409Z,26.63
2022-10-10T00:11:40.783Z,26.63
2022-10-10T00:14:11.044Z,34.35
2022-10-10T00:16:40.670Z,21.08
2022-10-10T00:19:09.310Z,21.52
2022-10-10T00:21:37.973Z,25.35
2022-10-10T00:24:06.903Z,25.23
2022-10-10T00:26:35.368Z,27.20
2022-10-10T00:29:04.381Z,14.50
2022-10-10T00:31:34.685Z,26.15
2022-10-10T00:34:03.262Z,24.17
2022-10-10T00:36:32.919Z,18.85
2022-10-10T00:39:01.968Z,24.50
2022-10-10T00:41:30.547Z,26.80
2022-10-10T00:44:08.114Z,19.80
2022-10-10T00:46:40.159Z,20.63
2022-10-10T00:49:14.263Z,22.38
2022-10-10T00:51:45.540Z,18.20
2022-10-10T00:54:16.694Z,22.83
2022-10-10T00:56:50.255Z,16.90
2022-10-10T00:59:20.463Z,28.70
2022-10-10T01:01:50.691Z,19.85
2022-10-10T01:04:35.034Z,26.30
2022-10-10T01:07:06.160Z,26.63
2022-10-10T01:09:37.883Z,20.13
2022-10-10T01:12:19.893Z,18.38
2022-10-10T01:15:00.605Z,20.58
2022-10-10T01:17:36.706Z,20.05
2022-10-10T01:20:35.068Z,25.75
2022-10-10T01:23:25.388Z,26.52
2022-10-10T01:26:05.387Z,21.52
2022-10-10T01:28:45.817Z,20.08
2022-10-10T01:31:22.612Z,15.57
2022-10-10T01:34:04.085Z,17.90
2022-10-10T01:36:44.453Z,25.42
2022-10-10T01:39:20.062Z,23.48
2022-10-10T01:41:55.233Z,21.48
2022-10-10T01:44:25.971Z,15.73
2022-10-10T01:46:54.691Z,20.13
2022-10-10T01:49:30.037Z,25.92
2022-10-10T01:52:12.551Z,19.15
2022-10-10T01:54:53.702Z,25.25
2022-10-10T01:57:32.989Z,22.02
2022-10-10T02:00:10.459Z,16.90
2022-10-10T02:02:48.391Z,19.50
2022-10-10T02:05:26.250Z,22.23
2022-10-10T02:08:00.088Z,21.83
2022-10-10T02:10:32.714Z,21.73
2022-10-10T02:13:04.725Z,14.02
2022-10-10T02:15:40.397Z,20.08
2022-10-10T02:18:12.113Z,29.58
2022-10-10T02:20:43.830Z,22.67
2022-10-10T02:23:16.480Z,21.10
2022-10-10T02:25:51.983Z,16.92
2022-10-10T02:28:25.741Z,19.45
2022-10-10T02:31:01.431Z,21.77
2022-10-10T02:33:36.261Z,19.48
2022-10-10T02:36:07.183Z,20.52
2022-10-10T02:38:36.398Z,26.40
2022-10-10T02:41:07.950Z,20.33
2022-10-10T02:43:37.375Z,17.05
2022-10-10T02:46:11.904Z,22.00
2022-10-10T02:48:40.744Z,23.95
2022-10-10T02:51:10.634Z,22.08
2022-10-10T02:53:39.753Z,18.85
2022-10-10T02:56:08.971Z,20.35
2022-10-10T02:58:37.465Z,27.50
2022-10-10T03:01:07.962Z,22.25
2022-10-10T03:03:36.917Z,21.80
2022-10-10T03:06:08.763Z,25.13
2022-10-10T03:08:40.069Z,24.80
2022-10-10T03:11:10.152Z,19.42
2022-10-10T03:13:39.449Z,24.55
2022-10-10T03:16:09.854Z,21.90
2022-10-10T03:18:38.708Z,22.13
2022-10-10T03:21:07.637Z,16.23
2022-10-10T03:23:36.448Z,20.42
2022-10-10T03:26:06.179Z,26.13
2022-10-10T03:28:34.761Z,22.65
2022-10-10T03:31:03.229Z,23.75
2022-10-10T03:33:33.748Z,19.70
2022-10-10T03:36:02.662Z,23.60
2022-10-10T03:38:31.116Z,19.98
2022-10-10T03:40:59.731Z,25.98
2022-10-10T03:43:28.132Z,20.90
2022-10-10T03:45:56.828Z,23.23
2022-10-10T03:48:25.369Z,24.23
2022-10-10T03:50:56.632Z,17.70
2022-10-10T03:53:25.374Z,13.95
2022-10-10T03:55:55.009Z,23.42
2022-10-10T03:58:24.073Z,19.20
2022-10-10T04:00:56.935Z,21.30
2022-10-10T04:03:26.540Z,17.25
2022-10-10T04:05:57.182Z,24.35
2022-10-10T04:08:25.887Z,19.33
2022-10-10T04:10:56.101Z,25.52
2022-10-10T04:13:27.694Z,14.55
2022-10-10T04:15:58.840Z,17.30
2022-10-10T04:18:27.440Z,18.20
2022-10-10T04:20:57.434Z,21.77
2022-10-10T04:23:26.103Z,24.38
2022-10-10T04:25:55.017Z,29.60
2022-10-10T04:28:23.718Z,16.85
2022-10-10T04:30:52.536Z,26.52
2022-10-10T04:33:21.170Z,25.17
2022-10-10T04:35:50.852Z,22.98
2022-10-10T04:38:22.938Z,24.92
2022-10-10T04:40:52.510Z,28.92
2022-10-10T04:43:21.323Z,21.40
2022-10-10T04:45:50.069Z,17.60
2022-10-10T04:48:18.905Z,14.25
2022-10-10T04:50:54.311Z,22.85
2022-10-10T04:53:26.191Z,26.52
2022-10-10T04:55:55.044Z,21.98
2022-10-10T04:58:24.224Z,23.92
2022-10-10T05:00:54.185Z,18.58
2022-10-10T05:03:23.685Z,25.63
2022-10-10T05:05:52.395Z,22.80
2022-10-10T05:08:21.837Z,19.50
2022-10-10T05:10:54.280Z,20.20
2022-10-10T05:13:23.424Z,23.33
2022-10-10T05:15:53.844Z,27.77
2022-10-10T05:18:23.448Z,23.75
2022-10-10T05:20:52.308Z,13.77
2022-10-10T05:23:20.773Z,24.05
2022-10-10T05:25:52.863Z,27.73
2022-10-10T05:28:21.376Z,31.48
2022-10-10T05:30:51.734Z,27.10
2022-10-10T05:33:21.196Z,22.10
2022-10-10T05:35:49.736Z,24.50
2022-10-10T05:38:18.345Z,17.60
2022-10-10T05:40:47.117Z,18.90
2022-10-10T05:43:17.653Z,18.85
2022-10-10T05:45:46.495Z,20.20
2022-10-10T05:48:14.965Z,22.75
2022-10-10T05:50:57.179Z,20.60
2022-10-10T05:53:26.933Z,27.02
2022-10-10T05:55:55.891Z,27.35
2022-10-10T05:58:27.506Z,17.48
2022-10-10T06:00:56.287Z,24.52
2022-10-10T06:03:24.709Z,23.40
2022-10-10T06:05:53.805Z,24.33
2022-10-10T06:08:22.536Z,19.27
2022-10-10T06:10:51.350Z,22.08
2022-10-10T06:13:24.331Z,15.38
2022-10-10T06:15:55.637Z,25.52
2022-10-10T06:18:24.210Z,25.02
2022-10-10T06:20:53.013Z,26.58
2022-10-10T06:23:21.792Z,20.65
2022-10-10T06:25:53.907Z,17.52
2022-10-10T06:28:23.131Z,25.63
2022-10-10T06:30:52.922Z,26.80
2022-10-10T06:33:23.197Z,19.65
2022-10-10T06:35:51.683Z,23.70
2022-10-10T06:38:20.840Z,21.95
2022-10-10T06:40:49.156Z,24.35
2022-10-10T06:43:18.433Z,25.25
2022-10-10T06:45:51.480Z,24.92
2022-10-10T06:48:19.966Z,24.95
2022-10-10T06:51:00.051Z,23.67
2022-10-10T06:53:30.099Z,18.80
2022-10-10T06:55:58.600Z,27.83
2022-10-10T06:58:28.482Z,28.67
2022-10-10T07:00:59.601Z,27.45
2022-10-10T07:03:30.136Z,24.23
2022-10-10T07:06:01.780Z,26.20
2022-10-10T07:08:31.003Z,28.85
2022-10-10T07:11:00.236Z,29.33
2022-10-10T07:13:29.166Z,29.25
2022-10-10T07:15:58.141Z,29.40
2022-10-10T07:18:28.735Z,23.17
2022-10-10T07:21:04.306Z,31.33
2022-10-10T07:23:33.363Z,20.15
2022-10-10T07:26:05.654Z,20.65
2022-10-10T07:28:36.229Z,20.70
2022-10-10T07:31:07.342Z,15.02
2022-10-10T07:33:38.945Z,26.30
2022-10-10T07:36:10.030Z,24.05
2022-10-10T07:38:39.743Z,25.02
2022-10-10T07:41:09.646Z,22.55
2022-10-10T07:43:38.538Z,28.65
2022-10-10T07:46:11.434Z,23.17
2022-10-10T07:48:41.402Z,20.85
2022-10-10T07:51:12.328Z,27.35
2022-10-10T07:53:41.644Z,20.33
2022-10-10T07:56:11.730Z,26.15
2022-10-10T07:58:40.327Z,25.20
2022-10-10T08:01:10.843Z,23.42
2022-10-10T08:03:39.916Z,29.42
2022-10-10T08:06:14.789Z,24.38
2022-10-10T08:08:51.348Z,24.63
2022-10-10T08:11:22.186Z,28.33
2022-10-10T08:13:52.852Z,27.70
2022-10-10T08:16:25.314Z,24.90
2022-10-10T08:18:53.683Z,20.27
2022-10-10T08:21:27.084Z,20.25
2022-10-10T08:23:55.706Z,24.08
2022-10-10T08:26:24.842Z,21.52
2022-10-10T08:28:53.512Z,19.77
2022-10-10T08:31:24.322Z,25.73
2022-10-10T08:33:54.612Z,25.25
2022-10-10T08:36:27.760Z,31.92
2022-10-10T08:38:59.659Z,23.83
2022-10-10T08:41:40.136Z,21.98
2022-10-10T08:44:19.002Z,28.33
2022-10-10T08:46:52.071Z,26.48
2022-10-10T08:49:26.764Z,24.73
2022-10-10T08:52:03.934Z,24.98
2022-10-10T08:54:35.270Z,25.05
2022-10-10T08:57:08.212Z,27.88
2022-10-10T08:59:41.309Z,25.20
2022-10-10T09:02:43.986Z,23.23
2022-10-10T09:05:28.078Z,26.55
2022-10-10T09:08:13.292Z,21.70
2022-10-10T09:10:52.770Z,23.15
2022-10-10T09:13:32.948Z,24.52
2022-10-10T09:16:04.054Z,21.70
2022-10-10T09:18:46.350Z,23.30
2022-10-10T09:21:19.381Z,26.83
2022-10-10T09:23:56.174Z,29.25
2022-10-10T09:26:29.183Z,32.42
2022-10-10T09:29:04.517Z,28.63
2022-10-10T09:31:38.061Z,20.63
2022-10-10T09:34:15.384Z,28.30
2022-10-10T09:36:44.821Z,22.35
2022-10-10T09:39:23.104Z,25.70
2022-10-10T09:41:57.546Z,27.92
2022-10-10T09:44:26.539Z,28.83
2022-10-10T09:46:55.883Z,26.65
2022-10-10T09:49:27.369Z,26.65
2022-10-10T09:51:59.944Z,24.27
2022-10-10T09:54:30.540Z,19.65
2022-10-10T09:57:00.246Z,26.92
2022-10-10T09:59:40.972Z,29.38
2022-10-10T10:02:19.426Z,23.88
2022-10-10T10:04:48.775Z,29.33
2022-10-10T10:07:23.927Z,25.63
2022-10-10T10:09:56.176Z,26.67
2022-10-10T10:12:26.826Z,25.38
2022-10-10T10:15:01.636Z,29.73
2022-10-10T10:17:31.762Z,23.98
2022-10-10T10:20:02.882Z,33.55
2022-10-10T10:22:36.222Z,27.10
2022-10-10T10:25:35.585Z,21.73
2022-10-10T10:28:19.485Z,26.08
2022-10-10T10:30:49.303Z,28.55
2022-10-10T10:33:28.406Z,28.48
2022-10-10T10:36:03.966Z,31.23
2022-10-10T10:38:41.695Z,27.40
2022-10-10T10:41:23.114Z,23.25
2022-10-10T10:44:24.472Z,28.42
2022-10-10T10:47:05.811Z,26.63
2022-10-10T10:49:41.896Z,27.20
2022-10-10T10:52:34.485Z,25.15
2022-10-10T10:55:21.715Z,31.63
2022-10-10T10:58:58.344Z,27.23
2022-10-10T11:01:20.145Z,35.08
2022-10-10T11:05:19.250Z,30.40
2022-10-10T11:07:19.465Z,26.10
2022-10-10T11:09:57.575Z,29.70
2022-10-10T11:12:41.379Z,28.48
2022-10-10T11:15:17.811Z,27.52
2022-10-10T11:17:52.096Z,28.08
2022-10-10T11:20:29.132Z,27.48
2022-10-10T11:23:08.675Z,22.95
2022-10-10T11:25:45.186Z,26.73
2022-10-10T11:28:22.787Z,26.65
2022-10-10T11:30:59.374Z,25.08
2022-10-10T11:33:36.679Z,29.58
2022-10-10T11:36:16.680Z,31.90
2022-10-10T11:38:50.914Z,26.02
2022-10-10T11:41:26.787Z,28.63
2022-10-10T11:43:59.527Z,31.42
2022-10-10T11:46:44.310Z,30.35
2022-10-10T11:49:21.502Z,30.05
2022-10-10T11:52:32.410Z,27.13
2022-10-10T11:55:10.966Z,26.48
2022-10-10T11:58:14.808Z,32.92
2022-10-10T12:01:23.316Z,36.08
2022-10-10T12:04:49.820Z,33.83
2022-10-10T12:07:58.101Z,29.23
2022-10-10T12:10:55.639Z,34.90
2022-10-10T12:13:41.307Z,27.27
2022-10-10T12:19:20.072Z,31.20
2022-10-10T12:22:15.720Z,28.85
2022-10-10T12:25:27.673Z,34.28
2022-10-10T12:28:29.094Z,30.65
2022-10-10T12:31:45.490Z,36.08
2022-10-10T12:34:57.452Z,28.40
2022-10-10T12:37:31.303Z,37.40
2022-10-10T12:40:23.252Z,27.30
2022-10-10T12:43:26.556Z,23.50
2022-10-10T12:46:22.515Z,32.42
2022-10-10T12:49:08.763Z,29.17
2022-10-10T12:51:39.870Z,32.80
2022-10-10T12:54:20.915Z,21.92
2022-10-10T12:56:49.600Z,30.95
2022-10-10T12:59:22.233Z,26.70
2022-10-10T13:01:57.635Z,25.25
2022-10-10T13:04:28.918Z,24.42
2022-10-10T13:07:03.975Z,23.40
2022-10-10T13:09:36.332Z,22.50
2022-10-10T13:12:07.294Z,21.25
2022-10-10T13:14:41.132Z,27.88
2022-10-10T13:17:25.553Z,23.85
2022-10-10T13:19:55.453Z,24.48
2022-10-10T13:22:27.102Z,27.50
2022-10-10T13:24:57.175Z,21.85
2022-10-10T13:27:28.208Z,21.20
2022-10-10T13:29:57.905Z,18.67
2022-10-10T13:32:29.196Z,29.33
2022-10-10T13:35:00.751Z,21.30
2022-10-10T13:37:31.337Z,25.85
2022-10-10T13:40:00.838Z,27.52
2022-10-10T13:42:34.380Z,20.38
2022-10-10T13:45:29.441Z,25.25
2022-10-10T13:48:13.127Z,23.05
2022-10-10T13:51:08.414Z,23.45
2022-10-10T13:53:54.293Z,20.45
2022-10-10T13:56:27.285Z,21.45
2022-10-10T13:58:58.601Z,22.55
2022-10-10T14:01:41.532Z,23.05
2022-10-10T14:04:22.696Z,22.38
2022-10-10T14:07:02.667Z,17.02
2022-10-10T14:09:38.877Z,19.83
2022-10-10T14:12:10.510Z,20.73
2022-10-10T14:14:44.738Z,20.95
2022-10-10T14:17:15.409Z,29.27
2022-10-10T14:19:45.878Z,15.25
2022-10-10T14:22:14.818Z,22.15
2022-10-10T14:24:45.220Z,22.77
2022-10-10T14:27:22.434Z,23.75
2022-10-10T14:29:51.569Z,18.10
2022-10-10T14:32:21.881Z,20.10
2022-10-10T14:34:50.650Z,22.20
2022-10-10T14:37:24.464Z,24.02
2022-10-10T14:39:57.562Z,20.92
2022-10-10T14:42:27.845Z,23.67
2022-10-10T14:44:56.289Z,23.70
2022-10-10T14:47:26.953Z,18.83
2022-10-10T14:49:58.341Z,21.98
2022-10-10T14:52:26.884Z,25.77
2022-10-10T14:54:57.192Z,24.60
2022-10-10T14:57:25.898Z,21.15
2022-10-10T14:59:55.629Z,20.85
2022-10-10T15:02:24.417Z,16.80
2022-10-10T15:04:53.157Z,16.58
2022-10-10T15:07:22.072Z,23.20
2022-10-10T15:10:26.118Z,26.63
2022-10-10T15:12:44.076Z,24.65
2022-10-10T15:15:16.106Z,17.50
2022-10-10T15:17:44.718Z,19.40
2022-10-10T15:20:14.925Z,25.92
2022-10-10T15:22:45.708Z,22.95
2022-10-10T15:25:14.397Z,18.77
2022-10-10T15:27:45.881Z,20.77
2022-10-10T15:30:15.886Z,19.67
2022-10-10T15:32:44.449Z,22.88
2022-10-10T15:35:16.762Z,16.58
2022-10-10T15:37:46.152Z,14.27
2022-10-10T15:40:17.921Z,14.80
2022-10-10T15:42:49.383Z,17.42
2022-10-10T15:45:43.552Z,18.25
2022-10-10T15:48:08.039Z,22.42
2022-10-10T15:50:39.565Z,19.65
2022-10-10T15:53:09.412Z,18.00
2022-10-10T15:55:43.878Z,19.92
2022-10-10T15:58:14.686Z,20.48
2022-10-10T16:00:46.870Z,17.77
2022-10-10T16:03:16.699Z,19.15
2022-10-10T16:05:45.563Z,22.10
2022-10-10T16:08:14.890Z,19.55
2022-10-10T16:10:45.798Z,19.70
2022-10-10T16:13:16.525Z,18.05
2022-10-10T16:15:45.417Z,23.50
2022-10-10T16:18:15.770Z,25.70
2022-10-10T16:20:44.390Z,22.67
2022-10-10T16:23:14.335Z,25.13
2022-10-10T16:25:44.828Z,24.42
2022-10-10T16:28:14.090Z,19.17
2022-10-10T16:30:45.538Z,23.50
2022-10-10T16:33:14.185Z,22.58
2022-10-10T16:35:42.943Z,20.98
2022-10-10T16:38:12.042Z,21.27
2022-10-10T16:40:46.906Z,23.13
2022-10-10T16:43:18.452Z,36.53
2022-10-10T16:45:50.439Z,25.58
2022-10-10T16:48:19.352Z,22.38
2022-10-10T16:50:48.193Z,21.05
2022-10-10T16:53:16.944Z,33.25
2022-10-10T16:56:08.746Z,44.65
2022-10-10T16:58:40.824Z,21.42
2022-10-10T17:01:23.023Z,25.80
2022-10-10T17:04:06.846Z,27.20
2022-10-10T17:06:38.555Z,27.67
2022-10-10T17:09:10.419Z,28.20
2022-10-10T17:11:39.357Z,21.08
2022-10-10T17:14:10.140Z,25.60
2022-10-10T17:19:35.515Z,30.38
2022-10-10T17:22:06.566Z,33.08
2022-10-10T17:24:36.139Z,28.98
2022-10-10T17:27:05.392Z,29.40
2022-10-10T17:29:34.963Z,27.77
2022-10-10T17:32:06.698Z,26.27
2022-10-10T17:34:36.895Z,30.90
2022-10-10T17:37:06.992Z,33.88
2022-10-10T17:39:36.970Z,29.25
2022-10-10T17:42:06.941Z,35.30
2022-10-10T17:44:41.943Z,37.30
2022-10-10T17:47:14.454Z,31.33
2022-10-10T17:49:46.779Z,36.25
2022-10-10T17:52:20.233Z,35.22
2022-10-10T17:54:50.849Z,42.83
2022-10-10T17:57:20.179Z,42.75
2022-10-10T17:59:49.138Z,31.13
2022-10-10T18:02:21.900Z,35.20
2022-10-10T18:04:51.552Z,41.53
2022-10-10T18:07:23.315Z,30.65
2022-10-10T18:09:52.681Z,25.80
2022-10-10T18:12:22.184Z,27.77
2022-10-10T18:15:05.528Z,31.08
2022-10-10T18:17:49.268Z,27.65
2022-10-10T18:20:17.890Z,31.05
2022-10-10T18:22:46.381Z,32.80
2022-10-10T18:25:15.266Z,62.05
2022-10-10T18:27:44.882Z,38.50
2022-10-10T18:30:16.912Z,34.22
2022-10-10T18:32:51.394Z,34.38
2022-10-10T18:35:21.431Z,31.40
2022-10-10T18:37:51.433Z,37.13
2022-10-10T18:40:22.155Z,42.20
2022-10-10T18:42:50.619Z,34.75
2022-10-10T18:45:19.352Z,36.53
2022-10-10T18:47:48.215Z,36.03
2022-10-10T18:50:19.683Z,31.60
2022-10-10T18:52:49.312Z,34.22
2022-10-10T18:55:19.485Z,30.33
2022-10-10T18:57:48.550Z,33.33
2022-10-10T19:00:19.486Z,32.08
2022-10-10T19:02:48.198Z,35.05
2022-10-10T19:05:18.871Z,28.95
2022-10-10T19:07:47.465Z,28.75
2022-10-10T19:10:17.817Z,35.28
2022-10-10T19:12:47.765Z,29.85
2022-10-10T19:15:17.683Z,27.08
2022-10-10T19:17:53.945Z,35.20
2022-10-10T19:20:28.459Z,30.02
2022-10-10T19:23:00.195Z,30.73
2022-10-10T19:25:31.208Z,30.48
2022-10-10T19:27:59.992Z,35.25
2022-10-10T19:30:28.764Z,39.45
2022-10-10T19:32:57.333Z,36.85
2022-10-10T19:35:27.909Z,39.75
2022-10-10T19:37:58.500Z,43.47
2022-10-10T19:40:27.053Z,43.03
2022-10-10T19:42:55.906Z,33.03
2022-10-10T19:45:24.829Z,37.50
2022-10-10T19:47:53.676Z,34.22
2022-10-10T19:50:22.108Z,29.80
2022-10-10T19:52:52.252Z,31.50
2022-10-10T19:55:20.619Z,32.55
2022-10-10T19:57:50.934Z,32.85
2022-10-10T20:00:20.286Z,39.83
2022-10-10T20:02:50.995Z,35.50
2022-10-10T20:05:21.115Z,41.60
2022-10-10T20:07:56.126Z,29.90
2022-10-10T20:10:25.272Z,30.05
2022-10-10T20:12:56.169Z,31.40
2022-10-10T20:15:26.838Z,41.35
2022-10-10T20:17:56.476Z,34.38
2022-10-10T20:20:24.939Z,35.60
2022-10-10T20:22:53.483Z,34.80
2022-10-10T20:25:24.439Z,33.72
2022-10-10T20:27:53.346Z,30.02
2022-10-10T20:30:22.068Z,35.40
2022-10-10T20:32:50.856Z,33.60
2022-10-10T20:35:20.720Z,31.58
2022-10-10T20:37:50.485Z,32.40
2022-10-10T20:40:22.895Z,29.85
2022-10-10T20:42:53.578Z,35.08
2022-10-10T20:45:22.378Z,27.95
2022-10-10T20:47:50.849Z,37.92
2022-10-10T20:50:20.387Z,31.83
2022-10-10T20:52:53.138Z,27.60
2022-10-10T20:55:25.299Z,34.40
2022-10-10T20:57:54.584Z,28.92
2022-10-10T21:00:23.497Z,33.85
2022-10-10T21:02:53.268Z,34.90
2022-10-10T21:05:22.508Z,34.50
2022-10-10T21:07:51.359Z,35.92
2022-10-10T21:10:25.552Z,27.90
2022-10-10T21:12:55.577Z,35.65
2022-10-10T21:15:24.478Z,36.83
2022-10-10T21:17:54.263Z,48.72
2022-10-10T21:20:28.514Z,40.35
2022-10-10T21:22:58.350Z,36.90
2022-10-10T21:25:33.749Z,45.47
2022-10-10T21:28:02.259Z,30.80
2022-10-10T21:30:34.763Z,32.72
2022-10-10T21:33:04.004Z,39.28
2022-10-10T21:35:53.065Z,32.65
2022-10-10T21:38:22.123Z,32.80
2022-10-10T21:40:53.826Z,38.08
2022-10-10T21:43:24.413Z,36.58
2022-10-10T21:45:52.794Z,38.33
2022-10-10T21:48:22.473Z,32.60
2022-10-10T21:50:51.537Z,38.45
2022-10-10T21:53:20.622Z,27.08
2022-10-10T21:55:49.033Z,36.95
2022-10-10T21:58:19.649Z,35.88
2022-10-10T22:00:48.591Z,29.75
2022-10-10T22:03:18.680Z,34.97
2022-10-10T22:05:47.452Z,35.88
2022-10-10T22:08:17.529Z,35.25
2022-10-10T22:10:46.769Z,34.92
2022-10-10T22:13:15.567Z,39.55
2022-10-10T22:15:50.754Z,42.33
2022-10-10T22:18:20.724Z,31.65
2022-10-10T22:20:49.410Z,36.35
2022-10-10T22:23:19.083Z,37.45
2022-10-10T22:25:58.345Z,39.45
2022-10-10T22:28:27.529Z,34.60
2022-10-10T22:30:58.028Z,30.20
2022-10-10T22:33:26.550Z,33.92
2022-10-10T22:35:55.203Z,44.33
2022-10-10T22:38:23.794Z,27.75
2022-10-10T22:40:53.671Z,36.40
2022-10-10T22:43:26.641Z,36.67
2022-10-10T22:45:57.941Z,35.15
2022-10-10T22:48:26.982Z,35.35
2022-10-10T22:51:03.758Z,35.47
2022-10-10T22:53:32.891Z,36.72
2022-10-10T22:56:01.449Z,36.85
2022-10-10T22:58:32.146Z,35.33
2022-10-10T23:01:09.497Z,33.47
2022-10-10T23:03:38.106Z,27.25
2022-10-10T23:06:07.912Z,32.47
2022-10-10T23:08:37.682Z,28.88
2022-10-10T23:11:13.202Z,24.80
2022-10-10T23:13:42.700Z,34.10
2022-10-10T23:16:14.114Z,30.95
2022-10-10T23:18:42.582Z,26.33
2022-10-10T23:21:11.205Z,26.42
2022-10-10T23:23:40.457Z,24.77
2022-10-10T23:26:11.009Z,26.25
2022-10-10T23:28:40.948Z,30.35
2022-10-10T23:31:10.833Z,28.60
2022-10-10T23:33:45.684Z,30.02
2022-10-10T23:36:17.161Z,27.10
2022-10-10T23:38:54.572Z,30.08
2022-10-10T23:41:23.140Z,22.60
2022-10-10T23:43:51.727Z,22.85
2022-10-10T23:46:24.782Z,25.10
2022-10-10T23:48:55.929Z,26.20
2022-10-10T23:51:28.404Z,28.95
2022-10-10T23:54:05.864Z,25.45
2022-10-10T23:56:34.558Z,29.58
2022-10-10T23:59:03.897Z,26.58
